Nearby METAR Reports

 

GCLP - Las Palmas/Gando, Spain
Distance from station: NE 26km
Updated: 20/06/2019 19:00
Partly cloudy
Partly cloudy
 Wind from N
Wind: N 33 km/h
Temperature: 24°C
Dew Point: 17°C
Humidity: 65%
Barometer: 1019 hPa
Clouds: Partly cloudy
Visibility: 10 km
Cloud details: Few Clouds 914 m
Partly cloudy 1372 m
2019/06/20 19:00 GCLP 201900Z 36018KT 9999 FEW030 SCT045 24/17 Q1019 NOSIG
GCTS - Tenerife Sur/Rei, Spain
Distance from station: WNW 102km
Updated: 20/06/2019 19:00
Mostly cloudy
Mostly cloudy
 Wind from varies
Wind: varies 6 km/h
Temperature: 23°C
Dew Point: 17°C
Humidity: 69%
Barometer: 1019 hPa
Clouds: Mostly cloudy
Visibility: 10 km
Cloud details: Few Clouds 914 m
Mostly cloudy 1280 m
2019/06/20 19:00 GCTS 201900Z VRB03KT 9999 FEW030 BKN042 23/17 Q1019 NOSIG
 
GCXO - Tenerife/Los Rod, Spain
Distance from station: NW 110km
Updated: 20/06/2019 19:00
Mostly cloudy
Mostly cloudy
 Wind from WNW
Wind: WNW 33 km/h
Temperature: 18°C
Dew Point: 15°C
Humidity: 83%
Barometer: 1021 hPa
Clouds: Mostly cloudy
Visibility: 10 km
Cloud details: Few Clouds 122 m
Partly cloudy 305 m
Mostly cloudy 518 m
2019/06/20 19:00 GCXO 201900Z 30018KT 9999 FEW004 SCT010 BKN017 18/15 Q1021 NOSIG
GCGM - La Gomera Arpt, Spain
Distance from station: W 164km
Updated: 20/06/2019 19:00
Few Clouds
Few Clouds
 Wind from SW
Wind: SW 9 km/h
Temperature: 22°C
Dew Point: 17°C
Humidity: 73%
Barometer: 1020 hPa
Clouds: Few Clouds
Visibility: 10 km
Cloud details: Few Clouds 1128 m
2019/06/20 19:00 GCGM 201900Z AUTO 23005KT 190V270 9999 FEW037 22/17 Q1020 RMK R09/25003KT 170V310 ARP/24004KT 190V290
 
GCFV - Fuerteventura Ar, Spain
Distance from station: ENE 183km
Updated: 20/06/2019 19:00
Few Clouds
Few Clouds
 Wind from N
Wind: N 30 km/h
Temperature: 24°C
Dew Point: 15°C
Humidity: 57%
Barometer: 1018 hPa
Clouds: Few Clouds
Visibility: 10 km
Cloud details: Few Clouds 1067 m
2019/06/20 19:00 GCFV 201900Z 36016KT 9999 FEW035 24/15 Q1018
GCHI - Hierro Airport, Spain
Distance from station: W 226km
Updated: 20/06/2019 19:00
Clear
Clear
 Wind from N
Wind: N 24 km/h
Temperature: 23°C
Dew Point: 18°C
Humidity: 74%
Barometer: 1020 hPa
Summary: Clear
Visibility: greater than 10 km
2019/06/20 19:00 GCHI 201900Z AUTO 35013KT CAVOK 23/18 Q1020
 
GCLA - La Palma Airport, Spain
Distance from station: WNW 233km
Updated: 20/06/2019 19:00
Mostly cloudy
Mostly cloudy
 Wind from NNE
Wind: NNE 22 km/h
Temperature: 23°C
Dew Point: 18°C
Humidity: 74%
Barometer: 1020 hPa
Clouds: Mostly cloudy
Visibility: 10 km
Cloud details: Few Clouds 914 m
Mostly cloudy 1676 m
2019/06/20 19:00 GCLA 201900Z 03012KT 9999 FEW030 BKN055 23/18 Q1020
GCRR - Arrecife/Lanzaro, Spain
Distance from station: NE 234km
Updated: 20/06/2019 19:00
Partly cloudy
Partly cloudy
 Wind from N
Wind: N 30 km/h
Temperature: 23°C
Dew Point: 16°C
Humidity: 65%
Barometer: 1018 hPa
Clouds: Partly cloudy
Visibility: 10 km
Cloud details: Few Clouds 762 m
Partly cloudy 914 m
2019/06/20 19:00 GCRR 201900Z 35016KT 310V020 9999 FEW025 SCT030 23/16 Q1018
 
LPMA - Funchal/Madeira, Portugal
Distance from station: NNW 556km
Updated: 20/06/2019 19:00
Few Clouds
Few Clouds
 Wind from N
Wind: N 17 km/h
Temperature: 22°C
Dew Point: 15°C
Humidity: 65%
Barometer: 1021 hPa
Clouds: Few Clouds
Visibility: 10 km
Cloud details: Few Clouds 488 m
2019/06/20 19:00 LPMA 201900Z 36009KT 9999 FEW016 22/15 Q1021
LPPS - Porto Santo Isla, Portugal
Distance from station: N 594km
Updated: 20/06/2019 19:00
Few Clouds
Few Clouds
 Wind from N
Wind: N 19 km/h
Temperature: 21°C
Dew Point: 15°C
Humidity: 69%
Barometer: 1021 hPa
Clouds: Few Clouds
Visibility: 10 km
Cloud details: Few Clouds 457 m
2019/06/20 19:00 LPPS 201900Z 01010KT 340V040 9999 FEW015 21/15 Q1021